Terminal Aerodrome Forecast
Issued by NWS Sterling, VA

Current Version | Previous Version | Graphics & Text | Print | Product List | Glossary On
Versions: 1 2 3 4 5 6 7 8 9 10 11 12 13 14 15 16 17 18 19 20 21 22 23 24 25 26
000
FTUS41 KLWX 152300
TAFMRB
TAF
KMRB 152330Z 1600/1624 00000KT P6SM SKC
     FM161600 06003KT 5SM -SHRA OVC040
     FM162200 17006KT P6SM OVC025=

USA.gov is the U.S. government's official web portal to all federal, state and local government web resources and services.